createdAt,value
2023-01-11T00:00:51.733Z,9.68
2023-01-11T00:03:18.134Z,9.68
2023-01-11T00:05:44.430Z,9.67
2023-01-11T00:08:10.788Z,9.64
2023-01-11T00:10:37.092Z,9.65
2023-01-11T00:13:03.525Z,9.63
2023-01-11T00:15:29.860Z,9.54
2023-01-11T00:17:56.198Z,9.43
2023-01-11T00:20:22.528Z,9.31
2023-01-11T00:22:48.966Z,9.23
2023-01-11T00:25:15.279Z,9.28
2023-01-11T00:27:41.664Z,9.34
2023-01-11T00:30:08.009Z,9.38
2023-01-11T00:32:34.348Z,9.44
2023-01-11T00:35:00.704Z,9.48
2023-01-11T00:37:27.063Z,9.51
2023-01-11T00:39:53.407Z,9.52
2023-01-11T00:42:19.779Z,9.52
2023-01-11T00:44:46.138Z,9.55
2023-01-11T00:47:12.520Z,9.54
2023-01-11T00:49:38.859Z,9.55
2023-01-11T00:52:05.202Z,9.54
2023-01-11T00:54:31.551Z,9.50
2023-01-11T00:56:57.893Z,9.55
2023-01-11T00:59:24.221Z,9.56
2023-01-11T01:01:50.630Z,9.45
2023-01-11T01:04:16.987Z,9.29
2023-01-11T01:06:43.413Z,9.18
2023-01-11T01:09:09.687Z,9.11
2023-01-11T01:11:36.030Z,9.15
2023-01-11T01:14:02.393Z,9.21
2023-01-11T01:16:28.773Z,9.27
2023-01-11T01:18:55.100Z,9.35
2023-01-11T01:21:21.444Z,9.35
2023-01-11T01:23:47.817Z,9.37
2023-01-11T01:26:14.193Z,9.38
2023-01-11T01:28:40.614Z,9.36
2023-01-11T01:31:06.993Z,9.36
2023-01-11T01:33:33.335Z,9.37
2023-01-11T01:35:59.669Z,9.36
2023-01-11T01:38:25.991Z,9.37
2023-01-11T01:40:52.347Z,9.39
2023-01-11T01:43:18.679Z,9.37
2023-01-11T01:45:45.011Z,9.36
2023-01-11T01:48:11.342Z,9.23
2023-01-11T01:50:37.687Z,9.06
2023-01-11T01:53:04.024Z,8.91
2023-01-11T01:55:30.365Z,8.85
2023-01-11T01:57:56.687Z,8.92
2023-01-11T02:00:23.028Z,8.96
2023-01-11T02:02:49.434Z,9.00
2023-01-11T02:05:15.735Z,9.01
2023-01-11T02:07:42.091Z,9.02
2023-01-11T02:10:08.434Z,9.02
2023-01-11T02:12:34.801Z,9.06
2023-01-11T02:15:01.139Z,9.05
2023-01-11T02:17:27.502Z,9.07
2023-01-11T02:19:53.909Z,9.10
2023-01-11T02:22:20.272Z,9.14
2023-01-11T02:24:46.635Z,9.17
2023-01-11T02:27:12.952Z,9.17
2023-01-11T02:29:39.343Z,9.18
2023-01-11T02:32:05.695Z,9.17
2023-01-11T02:34:32.080Z,9.10
2023-01-11T02:36:58.431Z,8.99
2023-01-11T02:39:24.834Z,8.90
2023-01-11T02:41:51.186Z,8.91
2023-01-11T02:44:17.571Z,9.00
2023-01-11T02:46:44.035Z,9.08
2023-01-11T02:49:10.255Z,9.17
2023-01-11T02:51:36.599Z,9.20
2023-01-11T02:54:02.988Z,9.25
2023-01-11T02:56:29.304Z,9.27
2023-01-11T02:58:55.712Z,9.30
2023-01-11T03:01:22.092Z,9.31
2023-01-11T03:03:48.413Z,9.33
2023-01-11T03:06:14.801Z,9.36
2023-01-11T03:08:41.185Z,9.38
2023-01-11T03:11:07.501Z,9.41
2023-01-11T03:13:33.895Z,9.43
2023-01-11T03:16:00.269Z,9.43
2023-01-11T03:18:26.579Z,9.41
2023-01-11T03:20:52.941Z,9.33
2023-01-11T03:23:19.273Z,9.24
2023-01-11T03:25:45.617Z,9.15
2023-01-11T03:28:11.978Z,9.17
2023-01-11T03:30:38.355Z,9.24
2023-01-11T03:33:04.718Z,9.31
2023-01-11T03:35:31.139Z,9.37
2023-01-11T03:37:57.486Z,9.40
2023-01-11T03:40:23.917Z,9.46
2023-01-11T03:42:50.229Z,9.47
2023-01-11T03:45:16.581Z,9.51
2023-01-11T03:47:42.896Z,9.52
2023-01-11T03:50:09.245Z,9.54
2023-01-11T03:52:35.568Z,9.53
2023-01-11T03:55:01.967Z,9.52
2023-01-11T03:57:28.337Z,9.54
2023-01-11T03:59:54.689Z,9.55
2023-01-11T04:02:21.067Z,9.55
2023-01-11T04:04:47.384Z,9.52
2023-01-11T04:07:13.707Z,9.42
2023-01-11T04:09:40.086Z,9.32
2023-01-11T04:12:06.493Z,9.25
2023-01-11T04:14:32.816Z,9.28
2023-01-11T04:16:59.141Z,9.35
2023-01-11T04:19:25.482Z,9.41
2023-01-11T04:21:51.805Z,9.47
2023-01-11T04:24:18.148Z,9.50
2023-01-11T04:26:44.514Z,9.52
2023-01-11T04:29:10.890Z,9.53
2023-01-11T04:31:37.335Z,9.54
2023-01-11T04:34:03.564Z,9.56
2023-01-11T04:36:29.923Z,9.57
2023-01-11T04:38:56.254Z,9.59
2023-01-11T04:41:23.734Z,9.58
2023-01-11T04:43:49.036Z,9.58
2023-01-11T04:46:15.404Z,9.57
2023-01-11T04:48:41.734Z,9.56
2023-01-11T04:51:08.101Z,9.53
2023-01-11T04:53:34.452Z,9.41
2023-01-11T04:56:00.817Z,9.29
2023-01-11T04:58:27.212Z,9.21
2023-01-11T05:00:53.639Z,9.24
2023-01-11T05:03:19.909Z,9.33
2023-01-11T05:05:46.235Z,9.37
2023-01-11T05:08:12.585Z,9.45
2023-01-11T05:10:38.940Z,9.48
2023-01-11T05:13:05.328Z,9.51
2023-01-11T05:15:31.677Z,9.53
2023-01-11T05:17:58.021Z,9.55
2023-01-11T05:20:24.381Z,9.56
2023-01-11T05:22:50.821Z,9.54
2023-01-11T05:25:17.147Z,9.53
2023-01-11T05:27:43.486Z,9.56
2023-01-11T05:30:09.820Z,9.54
2023-01-11T05:32:36.151Z,9.55
2023-01-11T05:35:02.515Z,9.52
2023-01-11T05:37:28.854Z,9.47
2023-01-11T05:39:55.182Z,9.36
2023-01-11T05:42:22.292Z,9.25
2023-01-11T05:44:47.896Z,9.21
2023-01-11T05:47:14.301Z,9.28
2023-01-11T05:49:40.652Z,9.34
2023-01-11T05:52:07.056Z,9.38
2023-01-11T05:54:33.373Z,9.43
2023-01-11T05:56:59.752Z,9.48
2023-01-11T05:59:26.063Z,9.48
2023-01-11T06:01:52.498Z,9.50
2023-01-11T06:04:18.799Z,9.53
2023-01-11T06:06:45.168Z,9.54
2023-01-11T06:09:11.527Z,9.56
2023-01-11T06:11:37.916Z,9.56
2023-01-11T06:14:04.278Z,9.58
2023-01-11T06:16:30.904Z,9.61
2023-01-11T06:18:57.487Z,9.65
2023-01-11T06:21:23.999Z,9.83
2023-01-11T06:23:50.445Z,10.02
2023-01-11T06:26:16.810Z,10.18
2023-01-11T06:28:43.184Z,10.31
2023-01-11T06:31:09.626Z,10.49
2023-01-11T06:33:36.038Z,10.68
2023-01-11T06:36:02.403Z,10.86
2023-01-11T06:38:28.739Z,11.03
2023-01-11T06:40:55.152Z,11.40
2023-01-11T06:43:21.498Z,11.74
2023-01-11T06:45:48.029Z,12.06
2023-01-11T06:48:14.384Z,12.46
2023-01-11T06:50:40.781Z,12.81
2023-01-11T06:53:07.132Z,13.04
2023-01-11T06:55:33.495Z,13.35
2023-01-11T06:57:59.952Z,13.53
2023-01-11T07:00:26.288Z,13.65
2023-01-11T07:02:52.650Z,13.63
2023-01-11T07:05:19.710Z,13.50
2023-01-11T07:07:45.389Z,13.35
2023-01-11T07:10:11.767Z,13.22
2023-01-11T07:12:38.132Z,13.11
2023-01-11T07:15:04.486Z,13.02
2023-01-11T07:17:30.808Z,12.94
2023-01-11T07:19:57.200Z,12.88
2023-01-11T07:22:23.588Z,12.82
2023-01-11T07:24:49.978Z,12.78
2023-01-11T07:27:16.327Z,12.74
2023-01-11T07:29:42.672Z,12.76
2023-01-11T07:32:09.073Z,12.79
2023-01-11T07:34:35.559Z,12.78
2023-01-11T07:37:01.750Z,12.88
2023-01-11T07:39:42.203Z,12.89
2023-01-11T07:41:54.523Z,12.88
2023-01-11T07:44:20.868Z,12.86
2023-01-11T07:46:47.330Z,12.84
2023-01-11T07:49:13.614Z,12.81
2023-01-11T07:51:40.078Z,12.78
2023-01-11T07:54:06.480Z,12.75
2023-01-11T07:56:32.837Z,12.72
2023-01-11T07:58:59.178Z,12.70
2023-01-11T08:01:25.634Z,12.68
2023-01-11T08:03:52.090Z,12.67
2023-01-11T08:06:18.675Z,12.67
2023-01-11T08:08:45.069Z,12.68
2023-01-11T08:11:11.392Z,12.68
2023-01-11T08:13:37.803Z,12.69
2023-01-11T08:16:04.199Z,12.71
2023-01-11T08:18:30.500Z,12.74
2023-01-11T08:20:56.818Z,12.75
2023-01-11T08:23:23.171Z,12.76
2023-01-11T08:25:49.491Z,12.77
2023-01-11T08:28:15.899Z,12.78
2023-01-11T08:30:42.305Z,12.78
2023-01-11T08:33:08.669Z,12.81
2023-01-11T08:35:35.029Z,12.85
2023-01-11T08:38:01.417Z,12.89
2023-01-11T08:40:27.778Z,12.94
2023-01-11T08:42:54.108Z,12.99
2023-01-11T08:45:20.434Z,13.36
2023-01-11T08:47:46.830Z,13.48
2023-01-11T08:50:13.188Z,13.55
2023-01-11T08:52:39.575Z,13.62
2023-01-11T08:55:05.932Z,14.32
2023-01-11T08:57:32.277Z,14.76
2023-01-11T08:59:58.654Z,14.77
2023-01-11T09:02:25.067Z,14.71
2023-01-11T09:04:51.454Z,14.65
2023-01-11T09:07:17.835Z,14.66
2023-01-11T09:09:44.233Z,14.70
2023-01-11T09:12:10.615Z,14.77
2023-01-11T09:14:37.021Z,14.98
2023-01-11T09:17:03.446Z,15.27
2023-01-11T09:19:29.823Z,15.55
2023-01-11T09:21:56.220Z,15.96
2023-01-11T09:24:22.537Z,16.49
2023-01-11T09:26:48.970Z,17.02
2023-01-11T09:29:15.339Z,17.34
2023-01-11T09:31:41.700Z,17.46
2023-01-11T09:34:08.010Z,17.51
2023-01-11T09:36:34.401Z,17.48
2023-01-11T09:39:00.775Z,17.39
2023-01-11T09:41:27.154Z,17.24
2023-01-11T09:43:53.562Z,17.05
2023-01-11T09:46:20.040Z,16.87
2023-01-11T09:48:46.265Z,16.67
2023-01-11T09:51:12.716Z,16.48
2023-01-11T09:53:39.086Z,16.28
2023-01-11T09:56:05.664Z,16.12
2023-01-11T09:58:32.092Z,15.96
2023-01-11T10:01:01.051Z,15.82
2023-01-11T10:03:24.799Z,15.68
2023-01-11T10:05:51.268Z,15.55
2023-01-11T10:18:26.625Z,15.12
2023-01-11T10:18:32.761Z,15.03
2023-01-11T10:20:29.456Z,14.98
2023-01-11T10:22:55.736Z,14.94
2023-01-11T10:25:22.103Z,14.92
2023-01-11T10:27:48.490Z,14.90
2023-01-11T10:30:14.865Z,14.91
2023-01-11T10:32:41.229Z,14.92
2023-01-11T10:35:07.577Z,14.95
2023-01-11T10:37:33.907Z,14.98
2023-01-11T10:40:00.255Z,15.01
2023-01-11T10:42:26.622Z,15.03
2023-01-11T10:44:53.028Z,15.05
2023-01-11T10:47:19.376Z,15.07
2023-01-11T10:49:45.782Z,15.10
2023-01-11T10:52:12.174Z,15.17
2023-01-11T10:54:38.517Z,15.24
2023-01-11T10:57:06.704Z,15.31
2023-01-11T10:59:31.307Z,15.35
2023-01-11T11:01:57.710Z,15.40
2023-01-11T11:04:24.082Z,15.45
2023-01-11T11:06:50.382Z,15.47
2023-01-11T11:09:16.816Z,15.52
2023-01-11T11:11:43.162Z,15.53
2023-01-11T11:14:09.531Z,15.52
2023-01-11T11:16:35.970Z,15.49
2023-01-11T11:19:02.228Z,15.50
2023-01-11T11:21:28.606Z,15.62
2023-01-11T11:23:54.971Z,15.78
2023-01-11T11:26:21.327Z,15.97
2023-01-11T11:28:47.784Z,16.08
2023-01-11T11:31:14.164Z,16.11
2023-01-11T11:33:40.473Z,16.12
2023-01-11T11:36:06.848Z,16.11
2023-01-11T11:38:33.182Z,16.09
2023-01-11T11:40:59.553Z,16.04
2023-01-11T11:43:25.885Z,15.99
2023-01-11T11:45:52.280Z,15.93
2023-01-11T11:48:18.632Z,15.86
2023-01-11T11:50:45.813Z,15.78
2023-01-11T11:53:11.361Z,15.71
2023-01-11T11:55:37.706Z,15.62
2023-01-11T11:58:04.071Z,15.53
2023-01-11T12:00:30.397Z,15.43
2023-01-11T12:02:56.779Z,15.33
2023-01-11T12:05:23.185Z,15.23
2023-01-11T12:07:55.110Z,15.12
2023-01-11T12:10:15.842Z,15.01
2023-01-11T12:12:42.235Z,14.90
2023-01-11T12:15:08.585Z,14.80
2023-01-11T12:17:34.967Z,14.71
2023-01-11T12:20:01.293Z,14.61
2023-01-11T12:22:27.635Z,14.51
2023-01-11T12:24:54.044Z,14.44
2023-01-11T12:27:20.487Z,14.36
2023-01-11T12:29:46.801Z,14.26
2023-01-11T12:32:13.170Z,14.24
2023-01-11T12:34:39.522Z,14.17
2023-01-11T12:37:05.832Z,14.10
2023-01-11T12:39:32.196Z,14.04
2023-01-11T12:41:58.517Z,13.98
2023-01-11T12:44:24.863Z,13.92
2023-01-11T12:46:51.278Z,13.88
2023-01-11T12:49:17.618Z,13.82
2023-01-11T12:51:43.988Z,13.79
2023-01-11T12:54:10.342Z,13.74
2023-01-11T12:56:36.700Z,13.71
2023-01-11T12:59:03.036Z,13.68
2023-01-11T13:01:29.484Z,13.64
2023-01-11T13:03:55.778Z,13.61
2023-01-11T13:06:22.690Z,13.59
2023-01-11T13:08:48.476Z,13.56
2023-01-11T13:11:14.857Z,13.55
2023-01-11T13:13:41.218Z,13.53
2023-01-11T13:16:07.609Z,13.51
2023-01-11T13:18:33.959Z,13.50
2023-01-11T13:21:02.538Z,13.48
2023-01-11T13:23:26.623Z,13.45
2023-01-11T13:25:52.973Z,13.44
2023-01-11T13:28:23.879Z,13.44
2023-01-11T13:30:45.832Z,13.42
2023-01-11T13:33:12.159Z,13.41
2023-01-11T13:35:38.535Z,13.41
2023-01-11T13:38:04.887Z,13.42
2023-01-11T13:40:31.269Z,13.41
2023-01-11T13:42:57.583Z,13.44
2023-01-11T13:45:23.968Z,13.46
2023-01-11T13:47:50.324Z,13.48
2023-01-11T13:50:16.643Z,13.49
2023-01-11T13:52:43.108Z,13.49
2023-01-11T13:55:14.200Z,13.49
2023-01-11T13:57:35.837Z,13.46
2023-01-11T14:00:02.230Z,13.41
2023-01-11T14:02:28.557Z,13.35
2023-01-11T14:04:54.910Z,13.31
2023-01-11T14:07:21.290Z,13.22
2023-01-11T14:09:47.605Z,13.16
2023-01-11T14:12:13.953Z,13.09
2023-01-11T14:14:40.309Z,13.00
2023-01-11T14:17:06.660Z,12.92
2023-01-11T14:19:33.076Z,12.85
2023-01-11T14:21:59.399Z,12.79
2023-01-11T14:24:25.771Z,12.75
2023-01-11T14:26:52.218Z,12.68
2023-01-11T14:29:18.489Z,12.62
2023-01-11T14:31:44.812Z,12.57
2023-01-11T14:34:11.141Z,12.51
2023-01-11T14:36:37.522Z,12.47
2023-01-11T14:39:03.842Z,12.41
2023-01-11T14:41:30.173Z,12.36
2023-01-11T14:43:56.546Z,12.33
2023-01-11T14:46:22.984Z,12.29
2023-01-11T14:48:49.211Z,12.24
2023-01-11T14:51:15.562Z,12.21
2023-01-11T14:53:41.935Z,12.18
2023-01-11T14:56:08.300Z,12.13
2023-01-11T14:58:34.623Z,12.11
2023-01-11T15:01:01.014Z,12.07
2023-01-11T15:03:27.371Z,12.03
2023-01-11T15:05:53.753Z,11.99
2023-01-11T15:08:20.079Z,11.95
2023-01-11T15:10:46.801Z,11.92
2023-01-11T15:13:13.162Z,11.88
2023-01-11T15:15:39.551Z,11.84
2023-01-11T15:18:05.924Z,11.81
2023-01-11T15:20:32.330Z,11.78
2023-01-11T15:22:58.700Z,11.74
2023-01-11T15:25:25.063Z,11.71
2023-01-11T15:27:51.415Z,11.67
2023-01-11T15:30:17.763Z,11.64
2023-01-11T15:32:44.124Z,11.62
2023-01-11T15:35:10.463Z,11.60
2023-01-11T15:37:36.835Z,11.58
2023-01-11T15:40:03.218Z,11.56
2023-01-11T15:42:29.605Z,11.54
2023-01-11T15:44:55.928Z,11.51
2023-01-11T15:47:22.258Z,11.50
2023-01-11T15:49:48.623Z,11.48
2023-01-11T15:52:14.958Z,11.45
2023-01-11T15:54:41.351Z,11.43
2023-01-11T15:57:07.668Z,11.42
2023-01-11T15:59:34.048Z,11.41
2023-01-11T16:02:00.397Z,11.39
2023-01-11T16:04:26.835Z,11.36
2023-01-11T16:06:53.123Z,11.34
2023-01-11T16:09:19.514Z,11.34
2023-01-11T16:11:45.943Z,11.32
2023-01-11T16:14:12.244Z,11.29
2023-01-11T16:16:38.616Z,11.28
2023-01-11T16:19:04.939Z,11.35
2023-01-11T16:21:31.303Z,11.34
2023-01-11T16:23:57.677Z,11.30
2023-01-11T16:26:24.066Z,11.28
2023-01-11T16:28:50.387Z,11.25
2023-01-11T16:31:16.744Z,11.23
2023-01-11T16:33:43.069Z,11.20
2023-01-11T16:36:09.446Z,11.16
2023-01-11T16:38:35.795Z,11.14
2023-01-11T16:41:02.123Z,11.13
2023-01-11T16:43:29.518Z,11.11
2023-01-11T16:45:56.027Z,11.08
2023-01-11T16:48:22.294Z,11.05
2023-01-11T16:50:48.678Z,11.03
2023-01-11T16:53:14.999Z,11.02
2023-01-11T16:55:41.390Z,11.00
2023-01-11T16:58:07.780Z,10.98
2023-01-11T17:00:34.133Z,10.95
2023-01-11T17:03:00.487Z,10.94
2023-01-11T17:05:26.840Z,10.92
2023-01-11T17:07:53.237Z,10.90
2023-01-11T17:10:19.575Z,11.05
2023-01-11T17:12:45.917Z,11.14
2023-01-11T17:15:12.264Z,11.12
2023-01-11T17:17:38.754Z,11.07
2023-01-11T17:20:04.934Z,11.03
2023-01-11T17:22:31.313Z,11.00
2023-01-11T17:24:57.671Z,10.97
2023-01-11T17:27:24.421Z,10.95
2023-01-11T17:29:50.745Z,10.93
2023-01-11T17:32:17.124Z,10.90
2023-01-11T17:34:43.449Z,10.88
2023-01-11T17:37:09.824Z,10.87
2023-01-11T17:39:36.180Z,10.88
2023-01-11T17:42:02.565Z,10.87
2023-01-11T17:44:28.892Z,10.91
2023-01-11T17:46:55.276Z,11.19
2023-01-11T17:49:21.662Z,11.22
2023-01-11T17:51:48.008Z,11.16
2023-01-11T17:54:14.365Z,11.11
2023-01-11T17:56:40.712Z,11.06
2023-01-11T17:59:07.065Z,11.01
2023-01-11T18:01:33.512Z,10.97
2023-01-11T18:03:59.860Z,10.93
2023-01-11T18:06:26.311Z,10.90
2023-01-11T18:08:52.772Z,10.88
2023-01-11T18:11:19.192Z,10.85
2023-01-11T18:13:45.559Z,10.82
2023-01-11T18:16:12.006Z,10.80
2023-01-11T18:18:38.330Z,10.78
2023-01-11T18:21:04.671Z,10.74
2023-01-11T18:23:31.029Z,10.69
2023-01-11T18:25:57.423Z,10.70
2023-01-11T18:28:23.790Z,10.68
2023-01-11T18:30:50.192Z,10.66
2023-01-11T18:33:16.532Z,10.64
2023-01-11T18:35:42.901Z,10.61
2023-01-11T18:38:09.264Z,10.59
2023-01-11T18:40:35.622Z,10.58
2023-01-11T18:43:01.989Z,10.54
2023-01-11T18:45:28.349Z,10.51
2023-01-11T18:47:54.681Z,10.50
2023-01-11T18:50:21.033Z,10.48
2023-01-11T18:52:47.365Z,10.46
2023-01-11T18:55:13.749Z,10.41
2023-01-11T18:57:40.104Z,10.41
2023-01-11T19:00:06.447Z,10.38
2023-01-11T19:02:32.771Z,10.35
2023-01-11T19:04:59.157Z,10.33
2023-01-11T19:07:25.528Z,10.33
2023-01-11T19:09:51.915Z,10.29
2023-01-11T19:12:18.290Z,10.29
2023-01-11T19:14:44.620Z,10.28
2023-01-11T19:17:10.952Z,10.25
2023-01-11T19:19:37.343Z,10.23
2023-01-11T19:22:03.689Z,10.22
2023-01-11T19:24:30.024Z,10.19
2023-01-11T19:26:56.430Z,10.18
2023-01-11T19:29:22.756Z,10.16
2023-01-11T19:31:49.131Z,10.16
2023-01-11T19:34:15.499Z,10.15
2023-01-11T19:36:41.889Z,10.11
2023-01-11T19:39:08.244Z,10.09
2023-01-11T19:41:34.583Z,10.07
2023-01-11T19:44:00.929Z,10.06
2023-01-11T19:46:31.907Z,10.05
2023-01-11T19:48:53.769Z,10.02
2023-01-11T19:51:20.086Z,10.00
2023-01-11T19:53:46.493Z,9.99
2023-01-11T19:56:12.818Z,9.97
2023-01-11T19:58:39.209Z,9.94
2023-01-11T20:01:05.637Z,9.92
2023-01-11T20:03:32.098Z,9.91
2023-01-11T20:05:58.601Z,9.89
2023-01-11T20:08:25.057Z,9.88
2023-01-11T20:10:51.378Z,9.87
2023-01-11T20:13:18.078Z,9.84
2023-01-11T20:15:44.415Z,9.83
2023-01-11T20:18:10.786Z,9.81
2023-01-11T20:20:37.141Z,9.79
2023-01-11T20:23:03.483Z,9.79
2023-01-11T20:25:30.233Z,9.79
2023-01-11T20:27:56.680Z,9.78
2023-01-11T20:30:23.053Z,9.74
2023-01-11T20:32:49.426Z,9.75
2023-01-11T20:35:15.721Z,9.75
2023-01-11T20:37:42.116Z,9.73
2023-01-11T20:40:08.475Z,9.72
2023-01-11T20:42:34.873Z,9.71
2023-01-11T20:45:01.281Z,9.69
2023-01-11T20:47:27.649Z,9.68
2023-01-11T20:49:54.011Z,9.68
2023-01-11T20:52:20.375Z,9.65
2023-01-11T20:54:46.741Z,9.67
2023-01-11T20:57:13.124Z,9.67
2023-01-11T20:59:39.470Z,9.65
2023-01-11T21:02:05.887Z,9.63
2023-01-11T21:04:32.199Z,9.63
2023-01-11T21:06:58.540Z,9.62
2023-01-11T21:09:25.098Z,9.60
2023-01-11T21:11:51.464Z,9.58
2023-01-11T21:14:17.780Z,9.57
2023-01-11T21:16:44.217Z,9.55
2023-01-11T21:19:10.572Z,9.55
2023-01-11T21:21:36.903Z,9.54
2023-01-11T21:24:03.273Z,9.50
2023-01-11T21:26:29.679Z,9.50
2023-01-11T21:28:55.984Z,9.49
2023-01-11T21:31:22.357Z,9.48
2023-01-11T21:33:48.699Z,9.46
2023-01-11T21:36:15.075Z,9.44
2023-01-11T21:38:41.441Z,9.42
2023-01-11T21:41:07.783Z,9.40
2023-01-11T21:43:34.091Z,9.37
2023-01-11T21:46:00.489Z,9.36
2023-01-11T21:48:26.808Z,9.33
2023-01-11T21:50:53.230Z,9.30
2023-01-11T21:53:19.588Z,9.27
2023-01-11T21:55:45.920Z,9.24
2023-01-11T21:58:12.305Z,9.24
2023-01-11T22:00:38.784Z,9.23
2023-01-11T22:03:04.987Z,9.22
2023-01-11T22:05:31.332Z,9.23
2023-01-11T22:07:57.714Z,9.20
2023-01-11T22:10:24.099Z,9.21
2023-01-11T22:12:50.417Z,9.21
2023-01-11T22:15:16.816Z,9.19
2023-01-11T22:17:43.141Z,9.19
2023-01-11T22:20:09.510Z,9.19
2023-01-11T22:22:35.830Z,9.19
2023-01-11T22:25:02.222Z,9.19
2023-01-11T22:27:28.552Z,9.19
2023-01-11T22:29:54.931Z,9.17
2023-01-11T22:32:21.252Z,9.17
2023-01-11T22:34:47.643Z,9.18
2023-01-11T22:37:13.936Z,9.18
2023-01-11T22:39:40.328Z,9.16
2023-01-11T22:42:06.669Z,9.15
2023-01-11T22:44:33.043Z,9.12
2023-01-11T22:47:00.460Z,9.11
2023-01-11T22:49:25.853Z,9.07
2023-01-11T22:51:52.209Z,9.06
2023-01-11T22:54:18.604Z,9.03
2023-01-11T22:56:44.961Z,9.03
2023-01-11T22:59:11.291Z,9.02
2023-01-11T23:01:37.648Z,9.00
2023-01-11T23:04:04.110Z,8.99
2023-01-11T23:06:30.390Z,8.98
2023-01-11T23:08:56.815Z,8.95
2023-01-11T23:11:23.213Z,8.93
2023-01-11T23:13:49.574Z,8.93
2023-01-11T23:16:15.952Z,8.92
2023-01-11T23:18:42.225Z,8.90
2023-01-11T23:21:08.599Z,8.89
2023-01-11T23:23:34.941Z,8.88
2023-01-11T23:26:01.304Z,8.87
2023-01-11T23:28:27.707Z,8.86
2023-01-11T23:30:54.065Z,8.85
2023-01-11T23:33:20.413Z,8.82
2023-01-11T23:35:46.765Z,8.79
2023-01-11T23:38:13.129Z,8.78
2023-01-11T23:40:39.485Z,8.77
2023-01-11T23:43:05.836Z,8.75
2023-01-11T23:45:32.249Z,8.74
2023-01-11T23:47:58.536Z,8.75
2023-01-11T23:50:24.908Z,8.74
2023-01-11T23:52:51.243Z,8.75
2023-01-11T23:55:17.616Z,8.75
2023-01-11T23:57:43.983Z,8.73
